Flight Track Log - Related Links

Times and Time Zones

All times are in EDT time to prevent confusion due to time zone crossing. See the EIN208 flight status page for this flight to view local times or setup timezone preferences in your user account.

Time Position Orientation Groundspeed Altitude Reporting Facility
EDT Latitude Longitude Course Direction KTS MPH feet Rate Location/Type
Sun 09:30:43 AM 53.4030 -6.2330 151° Southeast 131 151 2,900  Level FlightAware ADS-B
Sun 09:31:13 AM 53.3870 -6.2190 152° Southeast 125 144 4,000 1,527 Climbing FlightAware ADS-B
Sun 09:31:38 AM 53.3730 -6.2060 151° Southeast 153 176 4,300 873 Climbing FlightAware ADS-B
Sun 09:32:08 AM 53.3500 -6.1840 150° Southeast 209 241 4,800 1,200 Climbing FlightAware ADS-B
Sun 09:32:23 AM 53.3360 -6.1710 151° Southeast 233 268 5,200 1,800 Climbing FlightAware ADS-B
Sun 09:32:38 AM 53.3240 -6.1510 135° Southeast 261 300 5,700 2,400 Climbing FlightAware ADS-B
Sun 09:32:48 AM 53.3180 -6.1310 117° Southeast 284 327 6,200 2,700 Climbing FlightAware ADS-B
Sun 09:32:58 AM 53.3170 -6.1160 96° East 298 343 6,600 400 Climbing FlightAware ADS-B
Sun 09:33:18 AM 53.3271 -6.0552 96° East 278 320 6,400 3,400 Descending FlightAware UK
Sun 09:33:28 AM 53.3330 -6.0360 96° East 333 383 8,300 2,800 Climbing FlightAware ADS-B
Sun 09:33:48 AM 53.3477 -5.9839 96° East 284 327 7,800 2,600 Descending FlightAware UK
Sun 09:33:58 AM 53.3530 -5.9670 96° East 340 391 9,600 2,600 Climbing FlightAware ADS-B
Sun 09:34:18 AM 53.3693 -5.9129 96° East 292 336 9,100 1,886 Descending FlightAware UK
Sun 09:34:33 AM 53.3770 -5.8820 96° East 361 415 10,700 1,000 Climbing FlightAware ADS-B
Sun 09:34:48 AM 53.3907 -5.8350 96° East 326 375 9,600 -727 Descending FlightAware UK
Sun 09:35:06 AM 53.4041 -5.7844 66° East 332 382 10,300 6,000 Climbing FlightAware UK
Sun 09:35:13 AM 53.4060 -5.7740 66° East 384 442 12,100 6,545 Climbing FlightAware ADS-B
Sun 09:35:28 AM 53.4100 -5.7320 81° East 373 429 12,700 343 Climbing FlightAware ADS-B
Sun 09:35:48 AM 53.4119 -5.6635 81° East 336 387 12,300 316 Descending FlightAware UK
Sun 09:36:06 AM 53.4138 -5.6112 86° East 344 396 12,900 6,600 Climbing FlightAware UK
Sun 09:36:08 AM 53.4140 -5.6120 86° East 379 436 14,500 2,000 Climbing FlightAware ADS-B
Sun 09:36:24 AM 53.4150 -5.5584 86° East 344 396 13,500 -529 Descending FlightAware UK
Sun 09:36:42 AM 53.4163 -5.5045 88° East 350 403 14,200 2,333 Climbing FlightAware UK
Sun 09:37:00 AM 53.4176 -5.4490 88° East 352 405 14,900 2,167 Climbing FlightAware UK
Sun 09:37:18 AM 53.4191 -5.3933 87° East 358 412 15,500 5,478 Climbing FlightAware UK
Sun 09:37:23 AM 53.4190 -5.3970 87° East 400 460 17,000 2,000 Climbing FlightAware ADS-B
Sun 09:37:42 AM 53.4211 -5.3189 87° East 362 417 16,300 -162 Descending FlightAware UK
Sun 09:38:00 AM 53.4226 -5.2623 87° East 364 419 16,900 1,833 Climbing FlightAware UK
Sun 09:38:18 AM 53.4241 -5.2053 87° East 368 423 17,400 5,478 Climbing FlightAware UK
Sun 09:38:23 AM 53.4240 -5.2060 87° East 414 476 19,000 2,000 Climbing FlightAware ADS-B
Sun 09:38:42 AM 53.4261 -5.1279 87° East 372 428 18,200 -486 Descending FlightAware UK
Sun 09:39:00 AM 53.4275 -5.0693 88° East 376 433 18,700 1,833 Climbing FlightAware UK
Sun 09:39:18 AM 53.4288 -5.0105 88° East 374 430 19,300 1,333 Climbing FlightAware UK
Sun 09:39:36 AM 53.4304 -4.9517 87° East 360 414 19,500 333 Climbing FlightAware UK
Sun 09:39:54 AM 53.4318 -4.8967 87° East 352 405 19,500 4,091 Level FlightAware UK
Sun 09:39:58 AM 53.4320 -4.9130 87° East 400 460 21,000  Climbing FlightAware ADS-B
Sun 09:40:24 AM 53.4338 -4.8047 87° East 350 403 19,500 -2,045 Descending FlightAware UK
Sun 09:40:42 AM 53.4349 -4.7497 88° East 348 400 19,500 4,737 Level FlightAware UK
Sun 09:40:43 AM 53.4350 -4.7540 88° East 397 457 21,000  Climbing FlightAware ADS-B
Sun 09:41:00 AM 53.4361 -4.6944 88° East 348 400 19,500 -2,571 Descending FlightAware UK
Sun 09:41:18 AM 53.4372 -4.6385 88° East 350 403 19,500 3,913 Level FlightAware UK
Sun 09:41:23 AM 53.4380 -4.6320 88° East 400 460 21,000  Climbing FlightAware ADS-B
Sun 09:41:48 AM 53.4393 -4.5454 88° East 348 400 19,500  Descending FlightAware UK
Sun 09:41:58 AM 53.4400 -4.5230 88° East 402 463 21,000  Climbing FlightAware ADS-B
Sun 09:42:18 AM 53.4409 -4.4521 88° East 350 403 19,500 -2,368 Descending FlightAware UK
Sun 09:42:36 AM 53.4419 -4.3959 88° East 350 403 19,500 4,500 Level FlightAware UK
Sun 09:42:38 AM 53.4420 -4.4030 88° East 404 465 21,000  Climbing FlightAware ADS-B
Sun 09:43:06 AM 53.4420 -4.3021 88° East 348 400 19,500  Descending FlightAware UK
Sun 09:43:23 AM 53.4410 -4.2600 88° East 396 456 21,000 1,579 Climbing FlightAware ADS-B
Sun 09:44:03 AM 53.4360 -4.1520 94° East 396 456 21,000 -1,765 Level FlightAware ADS-B
Sun 09:44:31 AM 53.4320 -4.0447 94° East 352 405 19,000 -857 Descending FlightAware UK
Sun 09:44:38 AM 53.4320 -4.0360 94° East 395 455 20,500 -1,200 Climbing FlightAware ADS-B
Sun 09:45:01 AM 53.4283 -3.9534 94° East 354 407 18,400 -3,805 Descending FlightAware UK
Sun 09:45:19 AM 53.4264 -3.9002 93° East 354 407 17,900 2,000 Descending FlightAware UK
Sun 09:45:28 AM 53.4260 -3.8870 93° East 386 444 19,300 -1,571 Climbing FlightAware ADS-B
Sun 09:46:01 AM 53.4210 -3.7755 93° East 348 400 16,800 -1,543 Descending FlightAware UK
Sun 09:46:03 AM 53.4210 -3.7800 93° East 383 441 18,400 -1,400 Climbing FlightAware ADS-B
Sun 09:46:31 AM 53.4174 -3.6869 93° East 350 403 16,100 -1,350 Descending FlightAware UK
Sun 09:46:43 AM 53.4170 -3.6680 93° East 383 441 17,500 -577 Climbing FlightAware ADS-B
Sun 09:47:23 AM 53.4310 -3.5400 80° East 419 482 15,600 -4,000 Descending FlightAware ADS-B
Sun 09:47:43 AM 53.4419 -3.4636 80° East 346 398 13,500 -3,632 Descending FlightAware UK
Sun 09:48:01 AM 53.4497 -3.4081 77° East 338 389 13,300 3,900 Descending FlightAware UK
Sun 09:48:03 AM 53.4490 -3.4150 77° East 398 458 14,800 -1,333 Climbing FlightAware ADS-B
Sun 09:48:19 AM 53.4568 -3.3561 77° East 326 375 12,900 -4,059 Descending FlightAware UK
Sun 09:48:37 AM 53.4637 -3.3047 77° East 324 373 12,500 2,500 Descending FlightAware UK
Sun 09:48:43 AM 53.4640 -3.2980 77° East 379 436 13,900 -1,500 Climbing FlightAware ADS-B
Sun 09:49:01 AM 53.4722 -3.2365 77° East 314 361 11,900 -3,833 Descending FlightAware UK
Sun 09:49:19 AM 53.4785 -3.1888 77° East 302 348 11,600 2,444 Descending FlightAware UK
Sun 09:49:28 AM 53.4800 -3.1750 77° East 342 394 13,000 -2,250 Climbing FlightAware ADS-B
Sun 09:49:43 AM 53.4865 -3.1269 77° East 296 341 10,700 -5,455 Descending FlightAware UK
Sun 09:50:01 AM 53.4924 -3.0804 78° East 294 338 10,000 1,680 Descending FlightAware UK
Sun 09:50:08 AM 53.4930 -3.0740 78° East 337 388 11,400 -2,400 Climbing FlightAware ADS-B
Sun 09:50:31 AM 53.5019 -3.0039 78° East 290 334 8,800 -2,250 Descending FlightAware UK
Sun 09:50:48 AM 53.5060 -2.9740 78° East 329 379 9,900 973 Climbing FlightAware ADS-B
Sun 09:51:08 AM 53.5120 -2.9240 79° East 315 362 9,400 -1,714 Descending FlightAware ADS-B
Sun 09:51:23 AM 53.5170 -2.8870 77° East 313 360 8,900 -4,971 Descending FlightAware ADS-B
Sun 09:51:43 AM 53.5240 -2.8295 77° East 272 313 6,500 -1,920 Descending FlightAware UK
Sun 09:51:48 AM 53.5240 -2.8280 77° East 315 362 8,100 -250 Climbing FlightAware ADS-B
Sun 09:52:07 AM 53.5311 -2.7727 77° East 260 299 6,400 -200 Descending FlightAware UK
Sun 09:52:18 AM 53.5330 -2.7580 77° East 302 348 8,000 -600 Climbing FlightAware ADS-B
Sun 09:52:37 AM 53.5399 -2.7045 77° East 256 295 6,100 -960 Descending FlightAware UK
Sun 09:52:43 AM 53.5400 -2.7010 77° East 295 339 7,600 1,500 Climbing FlightAware ADS-B
Sun 09:53:13 AM 53.5480 -2.6340 79° East 291 335 7,000 -1,200 Descending FlightAware ADS-B
Sun 09:53:38 AM 53.5550 -2.5800 78° East 286 329 6,500 -3,125 Descending FlightAware ADS-B
Sun 09:54:01 AM 53.5614 -2.5202 78° East 246 283 4,500 -1,000 Descending FlightAware UK
Sun 09:54:08 AM 53.5620 -2.5150 78° East 279 321 6,000 -1,000 Climbing FlightAware ADS-B
Sun 09:54:25 AM 53.5671 -2.4703 78° East 238 274 4,100 -1,200 Descending FlightAware UK
Sun 09:54:38 AM 53.5690 -2.4530 78° East 277 319 5,400 -667 Climbing FlightAware ADS-B
Sun 09:55:01 AM 53.5719 -2.3952 78° East 234 269 3,700 -480 Descending FlightAware UK
Sun 09:55:03 AM 53.5720 -2.3990 78° East 268 308 5,200  Climbing FlightAware ADS-B
Sun 09:55:25 AM 53.5735 -2.3449 78° East 238 274 3,700  Descending FlightAware UK
Sun 09:55:33 AM 53.5740 -2.3380 78° East 265 305 5,200 3,913 Climbing FlightAware ADS-B
Sun 09:55:48 AM 53.5750 -2.3070 87° East 265 305 5,200 -300 Level FlightAware ADS-B
Sun 09:56:13 AM 53.5760 -2.2550 87° East 260 299 5,000 -4,320 Descending FlightAware ADS-B
Sun 09:56:13 AM 53.5760 -2.2462 87° East 234 269 3,400 -6,000 Descending FlightAware UK
Sun 09:56:32 AM 53.5706 -2.2123 87° East 228 262 3,100 2,400 Descending FlightAware UK
Sun 09:56:43 AM 53.5690 -2.2000 87° East 246 283 4,600 -514 Climbing FlightAware ADS-B
Sun 09:57:07 AM 53.5581 -2.1461 87° East 238 274 2,800 -480 Descending FlightAware UK
Sun 09:57:08 AM 53.5590 -2.1520 87° East 251 289 4,400 -480 Climbing FlightAware ADS-B
Sun 09:57:32 AM 53.5500 -2.1022 87° East 218 251 2,600 -480 Descending FlightAware UK
Sun 09:57:33 AM 53.5520 -2.1110 87° East 239 275 4,200 6,000 Climbing FlightAware ADS-B
Sun 09:57:48 AM 53.5450 -2.0850 114° Southeast 206 237 4,200 -2,571 Level FlightAware ADS-B
Sun 09:58:08 AM 53.5317 -2.0565 114° Southeast 196 226 2,700  Descending FlightAware UK
Sun 09:58:13 AM 53.5310 -2.0550 114° Southeast 188 216 4,200 -1,000 Climbing FlightAware ADS-B
Sun 09:58:32 AM 53.5191 -2.0291 114° Southeast 192 221 2,300 -900 Descending FlightAware UK
Sun 09:58:33 AM 53.5210 -2.0330 114° Southeast 186 214 3,900 8,182 Climbing FlightAware ADS-B
Sun 09:58:43 AM 53.5140 -2.0230 140° Southeast 166 191 3,800 -3,724 Descending FlightAware ADS-B
Sun 09:59:02 AM 53.4990 -2.0251 140° Southeast 186 214 2,100 -400 Descending FlightAware UK
Sun 09:59:13 AM 53.4950 -2.0270 140° Southeast 153 176 3,600 1,696 Climbing FlightAware ADS-B
Sun 09:59:48 AM 53.4720 -2.0450 205° Southwest 146 168 3,400 -1,964 Descending FlightAware ADS-B
Sun 10:00:08 AM 53.4594 -2.0571 205° Southwest 174 200 1,800 -240 Descending FlightAware UK
Sun 10:00:13 AM 53.4590 -2.0580 205° Southwest 129 148 3,300 -400 Climbing FlightAware ADS-B
Sun 10:00:38 AM 53.4477 -2.0796 205° Southwest 168 193 1,600 -200 Descending FlightAware UK
Sun 10:00:43 AM 53.4480 -2.0800 205° Southwest 129 148 3,200 -600 Climbing FlightAware ADS-B
Sun 10:01:08 AM 53.4364 -2.1031 205° Southwest 166 191 1,300 -720 Descending FlightAware UK
Sun 10:01:08 AM 53.4380 -2.1000 205° Southwest 129 148 2,900 -667 Climbing FlightAware ADS-B
Sun 10:01:26 AM 53.4297 -2.1171 205° Southwest 168 193 1,100 -800 Descending FlightAware UK
Sun 10:01:38 AM 53.4270 -2.1220 205° Southwest 129 148 2,500 -833 Climbing FlightAware ADS-B
Sun 10:02:02 AM 53.4162 -2.1453 205° Southwest 162 186 600 -800 Descending FlightAware UK
Sun 10:02:08 AM 53.4150 -2.1470 205° Southwest 139 160 2,100 -750 Climbing FlightAware ADS-B
Sun 10:02:26 AM 53.4067 -2.1648 205° Southwest 162 186 300 -600 Descending FlightAware UK
Sun 10:02:38 AM 53.4040 -2.1710 205° Southwest 138 159 1,800 2,889 Climbing FlightAware ADS-B
Sun 10:02:53 AM 53.3970 -2.1840 228° Southwest 136 157 1,600 -750 Descending FlightAware ADS-B
Sun 10:03:18 AM 53.3870 -2.2060 233° Southwest 133 153 1,300 -750 Descending FlightAware ADS-B
Sun 10:03:33 AM 53.3810 -2.2180 230° Southwest 138 159 1,100 -750 Descending FlightAware ADS-B
Sun 10:03:58 AM 53.3710 -2.2390 231° Southwest 138 159 800 -764 Descending FlightAware ADS-B
Sun 10:04:28 AM 53.3590 -2.2640 231° Southwest 140 161 400 -800 Descending FlightAware ADS-B

Login

Don't have an account? Register now (free) for customized features, flight alerts, and more!